KCAE/CAE METAR and TAF weather

Enter ICAO airport designator
Station Type Date Time Source
KCAE METAR 2021/02/27 01:56 UTC NOAA

KCAE 270156Z 02006KT 10SM SCT050 OVC100 11/07 A3018 RMK AO2 SLP217 T01110072


Station Type Date Time Source
KCAE Decoded METAR 2021/02/27 01:56 UTC NOAA

COLUMBIA METROPOLITAN AIRPORT , SC, United States (KCAE) 33-57N 081-07W 73M
Feb 26, 2021 - 08:56 PM EST / 2021.02.27 0156 UTC
Wind: from the NNE (020 degrees) at 7 MPH (6 KT):0
Visibility: 10 mile(s):0
Sky conditions: overcast
Temperature: 52.0 F (11.1 C)
Dew Point: 45.0 F (7.2 C)
Relative Humidity: 76%
Pressure (altimeter): 30.18 in. Hg (1022 hPa)
ob: KCAE 270156Z 02006KT 10SM SCT050 OVC100 11/07 A3018 RMK AO2 SLP217 T01110072
cycle: 2

Station Type Date Time Source
KCAE TAF 2021/02/26 21:58 UTC NOAA

TAF
AMD KCAE 262057Z 2621/2718 05007KT P6SM BKN080
FM270600 05004KT P6SM SCT015 BKN050
FM271500 22007KT P6SM SCT040

Example: see airport list